createdAt,value
2022-11-29T00:00:11.560Z,97.45
2022-11-29T00:06:13.925Z,96.57
2022-11-29T00:12:15.217Z,90.45
2022-11-29T00:18:08.523Z,84.75
2022-11-29T00:24:01.643Z,84.60
2022-11-29T00:29:54.628Z,87.38
2022-11-29T00:35:47.302Z,84.73
2022-11-29T00:41:40.358Z,81.25
2022-11-29T00:47:32.952Z,86.70
2022-11-29T00:53:25.380Z,87.53
2022-11-29T00:59:17.544Z,90.38
2022-11-29T01:05:10.020Z,83.32
2022-11-29T01:11:14.824Z,93.55
2022-11-29T01:17:07.369Z,83.90
2022-11-29T01:22:59.422Z,84.18
2022-11-29T01:28:53.022Z,84.95
2022-11-29T01:34:45.915Z,79.95
2022-11-29T01:40:38.123Z,80.65
2022-11-29T01:46:33.419Z,76.40
2022-11-29T01:52:32.902Z,77.95
2022-11-29T01:58:26.041Z,80.43
2022-11-29T02:04:20.144Z,75.43
2022-11-29T02:10:14.160Z,73.80
2022-11-29T02:16:15.623Z,78.65
2022-11-29T02:22:41.957Z,71.82
2022-11-29T02:28:37.223Z,65.80
2022-11-29T02:34:58.623Z,70.95
2022-11-29T02:41:12.460Z,66.40
2022-11-29T02:47:27.082Z,68.40
2022-11-29T02:53:32.692Z,72.15
2022-11-29T02:59:32.662Z,72.97
2022-11-29T03:05:53.421Z,79.95
2022-11-29T03:12:03.044Z,71.30
2022-11-29T03:18:34.022Z,70.38
2022-11-29T03:24:37.242Z,71.10
2022-11-29T03:30:32.989Z,65.80
2022-11-29T03:36:45.385Z,66.95
2022-11-29T03:42:52.829Z,67.30
2022-11-29T03:48:52.252Z,57.63
2022-11-29T03:55:07.184Z,64.10
2022-11-29T04:01:17.763Z,62.58
2022-11-29T04:07:24.787Z,61.78
2022-11-29T04:13:30.140Z,57.10
2022-11-29T04:19:59.880Z,56.55
2022-11-29T04:26:19.461Z,62.38
2022-11-29T04:32:12.523Z,54.90
2022-11-29T04:38:35.200Z,56.90
2022-11-29T04:44:46.748Z,57.45
2022-11-29T04:51:26.368Z,54.20
2022-11-29T04:57:34.843Z,52.35
2022-11-29T05:03:35.921Z,54.00
2022-11-29T05:09:46.434Z,54.38
2022-11-29T05:15:53.893Z,52.25
2022-11-29T05:22:21.513Z,53.30
2022-11-29T05:28:20.744Z,55.75
2022-11-29T05:34:34.523Z,49.55
2022-11-29T05:40:57.915Z,54.05
2022-11-29T05:46:50.217Z,51.28
2022-11-29T05:52:50.694Z,57.20
2022-11-29T05:58:53.254Z,55.40
2022-11-29T06:04:48.835Z,53.90
2022-11-29T06:11:06.274Z,62.13
2022-11-29T06:17:25.787Z,63.13
2022-11-29T06:23:29.385Z,54.85
2022-11-29T06:29:41.115Z,54.50
2022-11-29T06:35:47.884Z,60.67
2022-11-29T06:41:40.286Z,51.25
2022-11-29T06:47:42.735Z,54.88
2022-11-29T06:53:51.745Z,63.03
2022-11-29T06:59:58.965Z,54.35
2022-11-29T07:05:51.445Z,63.53
2022-11-29T07:11:45.944Z,65.28
2022-11-29T07:17:47.720Z,68.35
2022-11-29T07:24:26.836Z,48.75
2022-11-29T07:30:27.821Z,58.75
2022-11-29T07:36:20.097Z,60.47
2022-11-29T07:42:29.645Z,57.55
2022-11-29T07:48:22.974Z,61.38
2022-11-29T07:54:19.034Z,55.58
2022-11-29T08:00:13.025Z,62.08
2022-11-29T08:06:07.308Z,61.70
2022-11-29T08:11:59.567Z,63.80
2022-11-29T08:17:53.515Z,52.20
2022-11-29T08:23:49.863Z,60.38
2022-11-29T08:29:42.525Z,60.08
2022-11-29T08:35:35.284Z,54.88
2022-11-29T08:41:27.735Z,59.90
2022-11-29T08:47:36.765Z,55.45
2022-11-29T08:53:41.561Z,59.28
2022-11-29T08:59:33.554Z,52.55
2022-11-29T09:05:26.596Z,60.45
2022-11-29T09:11:21.284Z,59.55
2022-11-29T09:17:13.477Z,61.67
2022-11-29T09:23:05.860Z,58.20
2022-11-29T09:29:01.519Z,62.13
2022-11-29T09:34:54.106Z,59.92
2022-11-29T09:40:53.286Z,64.53
2022-11-29T09:47:10.856Z,57.10
2022-11-29T09:53:10.155Z,68.63
2022-11-29T09:59:11.776Z,58.97
2022-11-29T10:05:15.596Z,70.35
2022-11-29T10:11:30.310Z,59.38
2022-11-29T10:17:41.775Z,58.92
2022-11-29T10:23:46.817Z,56.90
2022-11-29T10:29:38.904Z,58.53
2022-11-29T10:35:31.896Z,54.67
2022-11-29T10:41:24.245Z,56.17
2022-11-29T10:47:17.044Z,46.40
2022-11-29T10:53:19.354Z,47.67
2022-11-29T10:59:24.984Z,51.53
2022-11-29T11:05:26.821Z,63.47
2022-11-29T11:11:31.454Z,63.28
2022-11-29T11:17:33.077Z,56.95
2022-11-29T11:23:36.486Z,59.78
2022-11-29T11:29:40.009Z,54.83
2022-11-29T11:35:32.154Z,57.28
2022-11-29T11:41:47.633Z,60.90
2022-11-29T11:47:55.493Z,52.85
2022-11-29T11:53:53.740Z,49.00
2022-11-29T11:59:51.441Z,45.20
2022-11-29T12:05:46.560Z,46.55
2022-11-29T12:12:02.335Z,48.35
2022-11-29T12:18:06.367Z,48.33
2022-11-29T12:24:23.824Z,42.60
2022-11-29T12:30:16.568Z,38.78
2022-11-29T12:42:36.228Z,42.78
2022-11-29T12:49:01.885Z,47.55
2022-11-29T12:55:20.780Z,45.08
2022-11-29T13:01:29.602Z,46.13
2022-11-29T13:07:45.093Z,43.05
2022-11-29T13:13:50.565Z,49.88
2022-11-29T13:19:58.335Z,50.45
2022-11-29T13:25:54.476Z,48.70
2022-11-29T13:31:48.462Z,42.88
2022-11-29T13:38:10.674Z,34.35
2022-11-29T13:44:47.499Z,39.63
2022-11-29T13:50:44.870Z,31.30
2022-11-29T13:56:48.179Z,30.00
2022-11-29T14:02:41.353Z,29.77
2022-11-29T14:09:17.194Z,36.08
2022-11-29T14:15:21.406Z,32.28
2022-11-29T14:21:13.577Z,31.30
2022-11-29T14:27:06.635Z,33.42
2022-11-29T14:33:04.708Z,35.35
2022-11-29T14:39:04.473Z,35.53
2022-11-29T14:45:01.155Z,39.83
2022-11-29T14:51:19.048Z,39.55
2022-11-29T14:57:45.387Z,36.70
2022-11-29T15:03:45.520Z,40.63
2022-11-29T15:09:40.335Z,40.75
2022-11-29T15:16:04.305Z,37.17
2022-11-29T15:22:10.676Z,35.70
2022-11-29T15:28:07.525Z,41.72
2022-11-29T15:34:02.251Z,36.17
2022-11-29T15:40:20.256Z,41.10
2022-11-29T15:46:21.242Z,39.65
2022-11-29T15:52:26.216Z,38.92
2022-11-29T15:58:23.347Z,40.90
2022-11-29T16:04:22.267Z,46.85
2022-11-29T16:10:29.238Z,47.55
2022-11-29T16:16:29.128Z,49.17
2022-11-29T16:22:24.403Z,46.28
2022-11-29T16:28:16.914Z,48.13
2022-11-29T16:34:20.473Z,44.83
2022-11-29T16:40:33.104Z,47.53
2022-11-29T16:46:27.055Z,49.53
2022-11-29T16:52:32.237Z,52.53
2022-11-29T16:58:24.757Z,43.17
2022-11-29T17:04:23.930Z,41.95
2022-11-29T17:10:22.976Z,45.28
2022-11-29T17:16:19.592Z,67.97
2022-11-29T17:22:12.835Z,53.03
2022-11-29T17:28:05.154Z,53.72
2022-11-29T17:34:02.134Z,55.13
2022-11-29T17:40:01.448Z,66.30
2022-11-29T17:45:56.190Z,59.40
2022-11-29T17:51:52.093Z,57.83
2022-11-29T17:57:44.765Z,62.35
2022-11-29T18:03:40.215Z,62.83
2022-11-29T18:09:33.146Z,63.90
2022-11-29T18:15:26.714Z,60.40
2022-11-29T18:21:18.756Z,64.18
2022-11-29T18:27:10.716Z,55.10
2022-11-29T18:33:02.975Z,54.05
2022-11-29T18:39:09.638Z,55.40
2022-11-29T18:45:03.644Z,57.45
2022-11-29T18:51:01.126Z,63.80
2022-11-29T18:56:54.404Z,80.25
2022-11-29T19:02:48.071Z,93.55
2022-11-29T19:08:45.807Z,74.00
2022-11-29T19:14:43.831Z,74.75
2022-11-29T19:20:41.054Z,73.18
2022-11-29T19:26:35.727Z,72.00
2022-11-29T19:32:28.274Z,63.15
2022-11-29T19:38:20.245Z,64.90
2022-11-29T19:44:13.045Z,73.68
2022-11-29T19:50:07.098Z,66.13
2022-11-29T19:56:01.437Z,76.88
2022-11-29T20:01:54.787Z,71.43
2022-11-29T20:07:48.031Z,64.88
2022-11-29T20:13:43.657Z,73.47
2022-11-29T20:19:36.390Z,67.30
2022-11-29T20:25:29.795Z,95.68
2022-11-29T20:31:23.501Z,73.45
2022-11-29T20:37:36.234Z,97.65
2022-11-29T20:43:59.046Z,94.25
2022-11-29T20:49:55.687Z,83.37
2022-11-29T20:55:52.622Z,92.13
2022-11-29T21:01:49.286Z,97.13
2022-11-29T21:07:43.265Z,100.43
2022-11-29T21:13:35.815Z,105.82
2022-11-29T21:19:28.781Z,120.80
2022-11-29T21:25:58.821Z,118.20
2022-11-29T21:31:54.076Z,118.05
2022-11-29T21:37:46.669Z,107.40
2022-11-29T21:44:08.412Z,117.38
2022-11-29T21:49:54.507Z,125.30
2022-11-29T21:55:46.607Z,125.53
2022-11-29T22:01:40.037Z,124.97
2022-11-29T22:07:32.539Z,124.60
2022-11-29T22:13:25.915Z,128.48
2022-11-29T22:19:25.776Z,134.90
2022-11-29T22:25:18.443Z,132.68
2022-11-29T22:31:12.589Z,137.63
2022-11-29T22:37:04.662Z,136.60
2022-11-29T22:42:56.549Z,120.93
2022-11-29T22:48:51.935Z,136.30
2022-11-29T22:54:44.926Z,123.00
2022-11-29T23:00:44.086Z,128.75
2022-11-29T23:06:39.166Z,135.43
2022-11-29T23:12:31.445Z,139.32
2022-11-29T23:18:23.867Z,137.38
2022-11-29T23:24:16.689Z,119.50
2022-11-29T23:30:09.238Z,151.80
2022-11-29T23:36:05.075Z,136.60
2022-11-29T23:41:57.704Z,127.40
2022-11-29T23:47:49.834Z,140.32
2022-11-29T23:53:42.605Z,139.10
2022-11-29T23:59:35.010Z,123.85
